sensor_id;sensor_type;location;lat;lon;timestamp;pressure;altitude;pressure_sealevel;temperature;humidity
12178;BME280;6152;48.728;9.256;2023-09-07T00:00:53;97404.53;;;17.58;100.00
12178;BME280;6152;48.728;9.256;2023-09-07T00:03:19;97408.72;;;17.49;100.00
12178;BME280;6152;48.728;9.256;2023-09-07T00:05:45;97404.94;;;17.42;100.00
12178;BME280;6152;48.728;9.256;2023-09-07T00:08:11;97402.81;;;17.36;100.00
12178;BME280;6152;48.728;9.256;2023-09-07T00:10:38;97404.97;;;17.31;100.00
12178;BME280;6152;48.728;9.256;2023-09-07T00:13:05;97403.00;;;17.24;100.00
12178;BME280;6152;48.728;9.256;2023-09-07T00:15:36;97397.41;;;17.17;100.00
12178;BME280;6152;48.728;9.256;2023-09-07T00:18:02;97399.59;;;17.12;100.00
12178;BME280;6152;48.728;9.256;2023-09-07T00:20:29;97405.22;;;17.07;100.00
12178;BME280;6152;48.728;9.256;2023-09-07T00:22:55;97402.25;;;17.01;100.00
12178;BME280;6152;48.728;9.256;2023-09-07T00:25:21;97406.22;;;16.95;100.00
12178;BME280;6152;48.728;9.256;2023-09-07T00:27:47;97402.44;;;16.88;100.00
12178;BME280;6152;48.728;9.256;2023-09-07T00:30:13;97402.69;;;16.85;100.00
12178;BME280;6152;48.728;9.256;2023-09-07T00:32:40;97410.94;;;16.81;100.00
12178;BME280;6152;48.728;9.256;2023-09-07T00:35:07;97404.50;;;16.74;100.00
12178;BME280;6152;48.728;9.256;2023-09-07T00:37:33;97402.22;;;16.69;100.00
12178;BME280;6152;48.728;9.256;2023-09-07T00:39:59;97405.25;;;16.64;100.00
12178;BME280;6152;48.728;9.256;2023-09-07T00:42:25;97399.50;;;16.59;100.00
12178;BME280;6152;48.728;9.256;2023-09-07T00:44:51;97403.44;;;16.54;100.00
12178;BME280;6152;48.728;9.256;2023-09-07T00:47:18;97402.72;;;16.52;100.00
12178;BME280;6152;48.728;9.256;2023-09-07T00:49:44;97406.69;;;16.46;100.00
12178;BME280;6152;48.728;9.256;2023-09-07T00:52:11;97403.56;;;16.41;100.00
12178;BME280;6152;48.728;9.256;2023-09-07T00:54:38;97404.91;;;16.36;100.00
12178;BME280;6152;48.728;9.256;2023-09-07T00:57:06;97403.47;;;16.32;100.00
12178;BME280;6152;48.728;9.256;2023-09-07T00:59:33;97402.16;;;16.26;100.00
12178;BME280;6152;48.728;9.256;2023-09-07T01:02:00;97405.03;;;16.23;100.00
12178;BME280;6152;48.728;9.256;2023-09-07T01:04:26;97406.22;;;16.19;100.00
12178;BME280;6152;48.728;9.256;2023-09-07T01:06:56;97393.59;;;16.13;100.00
12178;BME280;6152;48.728;9.256;2023-09-07T01:09:30;97400.03;;;16.09;100.00
12178;BME280;6152;48.728;9.256;2023-09-07T01:11:58;97397.66;;;16.06;100.00
12178;BME280;6152;48.728;9.256;2023-09-07T01:14:24;97398.69;;;16.03;100.00
12178;BME280;6152;48.728;9.256;2023-09-07T01:16:50;97399.78;;;16.01;100.00
12178;BME280;6152;48.728;9.256;2023-09-07T01:19:17;97393.09;;;15.97;100.00
12178;BME280;6152;48.728;9.256;2023-09-07T01:21:43;97393.47;;;15.92;100.00
12178;BME280;6152;48.728;9.256;2023-09-07T01:24:11;97392.03;;;15.88;100.00
12178;BME280;6152;48.728;9.256;2023-09-07T01:26:38;97398.38;;;15.86;100.00
12178;BME280;6152;48.728;9.256;2023-09-07T01:29:08;97401.19;;;15.83;100.00
12178;BME280;6152;48.728;9.256;2023-09-07T01:31:38;97397.88;;;15.81;100.00
12178;BME280;6152;48.728;9.256;2023-09-07T01:34:05;97397.25;;;15.77;100.00
12178;BME280;6152;48.728;9.256;2023-09-07T01:36:32;97388.78;;;15.74;100.00
12178;BME280;6152;48.728;9.256;2023-09-07T01:38:58;97391.41;;;15.74;100.00
12178;BME280;6152;48.728;9.256;2023-09-07T01:41:24;97384.47;;;15.73;100.00
12178;BME280;6152;48.728;9.256;2023-09-07T01:43:50;97388.31;;;15.69;100.00
12178;BME280;6152;48.728;9.256;2023-09-07T01:46:17;97384.97;;;15.66;100.00
12178;BME280;6152;48.728;9.256;2023-09-07T01:48:43;97387.81;;;15.63;100.00
12178;BME280;6152;48.728;9.256;2023-09-07T01:51:09;97389.75;;;15.61;100.00
12178;BME280;6152;48.728;9.256;2023-09-07T01:53:35;97400.34;;;15.60;100.00
12178;BME280;6152;48.728;9.256;2023-09-07T01:56:01;97399.63;;;15.58;100.00
12178;BME280;6152;48.728;9.256;2023-09-07T01:58:27;97402.38;;;15.56;100.00
12178;BME280;6152;48.728;9.256;2023-09-07T02:00:57;97403.53;;;15.52;100.00
12178;BME280;6152;48.728;9.256;2023-09-07T02:03:25;97402.09;;;15.48;100.00
12178;BME280;6152;48.728;9.256;2023-09-07T02:05:52;97402.31;;;15.45;100.00
12178;BME280;6152;48.728;9.256;2023-09-07T02:08:18;97400.84;;;15.41;100.00
12178;BME280;6152;48.728;9.256;2023-09-07T02:10:44;97405.50;;;15.38;100.00
12178;BME280;6152;48.728;9.256;2023-09-07T02:13:10;97397.75;;;15.36;100.00
12178;BME280;6152;48.728;9.256;2023-09-07T02:15:38;97397.03;;;15.34;100.00
12178;BME280;6152;48.728;9.256;2023-09-07T02:18:05;97397.50;;;15.28;100.00
12178;BME280;6152;48.728;9.256;2023-09-07T02:20:32;97402.25;;;15.23;100.00
12178;BME280;6152;48.728;9.256;2023-09-07T02:22:59;97402.47;;;15.20;100.00
12178;BME280;6152;48.728;9.256;2023-09-07T02:25:25;97407.13;;;15.16;100.00
12178;BME280;6152;48.728;9.256;2023-09-07T02:27:51;97405.78;;;15.11;100.00
12178;BME280;6152;48.728;9.256;2023-09-07T02:30:17;97403.59;;;15.05;100.00
12178;BME280;6152;48.728;9.256;2023-09-07T02:32:43;97407.16;;;15.04;100.00
12178;BME280;6152;48.728;9.256;2023-09-07T02:35:10;97404.06;;;14.99;100.00
12178;BME280;6152;48.728;9.256;2023-09-07T02:37:36;97399.78;;;14.98;100.00
12178;BME280;6152;48.728;9.256;2023-09-07T02:40:03;97402.63;;;14.95;100.00
12178;BME280;6152;48.728;9.256;2023-09-07T02:42:35;97401.16;;;14.91;100.00
12178;BME280;6152;48.728;9.256;2023-09-07T02:45:01;97397.00;;;14.88;100.00
12178;BME280;6152;48.728;9.256;2023-09-07T02:47:27;97395.44;;;14.86;100.00
12178;BME280;6152;48.728;9.256;2023-09-07T02:49:53;97391.38;;;14.82;100.00
12178;BME280;6152;48.728;9.256;2023-09-07T02:52:20;97394.22;;;14.79;100.00
12178;BME280;6152;48.728;9.256;2023-09-07T02:54:46;97403.09;;;14.76;100.00
12178;BME280;6152;48.728;9.256;2023-09-07T02:57:12;97395.47;;;14.73;100.00
12178;BME280;6152;48.728;9.256;2023-09-07T02:59:38;97393.09;;;14.70;100.00
12178;BME280;6152;48.728;9.256;2023-09-07T03:02:04;97396.03;;;14.65;100.00
12178;BME280;6152;48.728;9.256;2023-09-07T03:04:31;97392.91;;;14.60;100.00
12178;BME280;6152;48.728;9.256;2023-09-07T03:06:57;97391.47;;;14.56;100.00
12178;BME280;6152;48.728;9.256;2023-09-07T03:09:23;97390.00;;;14.52;100.00
12178;BME280;6152;48.728;9.256;2023-09-07T03:11:49;97383.44;;;14.47;100.00
12178;BME280;6152;48.728;9.256;2023-09-07T03:14:15;97382.81;;;14.43;100.00
12178;BME280;6152;48.728;9.256;2023-09-07T03:16:42;97387.31;;;14.41;100.00
12178;BME280;6152;48.728;9.256;2023-09-07T03:19:08;97384.06;;;14.38;100.00
12178;BME280;6152;48.728;9.256;2023-09-07T03:21:34;97386.06;;;14.34;100.00
12178;BME280;6152;48.728;9.256;2023-09-07T03:24:00;97383.56;;;14.33;100.00
12178;BME280;6152;48.728;9.256;2023-09-07T03:26:26;97384.63;;;14.30;100.00
12178;BME280;6152;48.728;9.256;2023-09-07T03:28:52;97385.78;;;14.26;100.00
12178;BME280;6152;48.728;9.256;2023-09-07T03:31:18;97376.47;;;14.22;100.00
12178;BME280;6152;48.728;9.256;2023-09-07T03:33:44;97381.91;;;14.19;100.00
12178;BME280;6152;48.728;9.256;2023-09-07T03:36:10;97382.13;;;14.16;100.00
12178;BME280;6152;48.728;9.256;2023-09-07T03:38:39;97383.16;;;14.13;100.00
12178;BME280;6152;48.728;9.256;2023-09-07T03:41:06;97380.66;;;14.12;100.00
12178;BME280;6152;48.728;9.256;2023-09-07T03:43:32;97376.28;;;14.12;100.00
12178;BME280;6152;48.728;9.256;2023-09-07T03:45:58;97384.22;;;14.11;100.00
12178;BME280;6152;48.728;9.256;2023-09-07T03:48:24;97387.81;;;14.10;100.00
12178;BME280;6152;48.728;9.256;2023-09-07T03:50:50;97386.13;;;14.09;100.00
12178;BME280;6152;48.728;9.256;2023-09-07T03:53:16;97375.88;;;14.06;100.00
12178;BME280;6152;48.728;9.256;2023-09-07T03:55:44;97382.13;;;14.03;100.00
12178;BME280;6152;48.728;9.256;2023-09-07T03:58:10;97390.97;;;14.02;100.00
12178;BME280;6152;48.728;9.256;2023-09-07T04:00:40;97383.31;;;13.99;100.00
12178;BME280;6152;48.728;9.256;2023-09-07T04:03:08;97383.41;;;13.98;100.00
12178;BME280;6152;48.728;9.256;2023-09-07T04:05:36;97381.03;;;13.95;100.00
12178;BME280;6152;48.728;9.256;2023-09-07T04:08:02;97379.34;;;13.94;100.00
12178;BME280;6152;48.728;9.256;2023-09-07T04:10:29;97379.56;;;13.91;100.00
12178;BME280;6152;48.728;9.256;2023-09-07T04:12:55;97379.06;;;13.86;100.00
12178;BME280;6152;48.728;9.256;2023-09-07T04:15:21;97379.16;;;13.84;100.00
12178;BME280;6152;48.728;9.256;2023-09-07T04:17:49;97376.84;;;13.80;100.00
12178;BME280;6152;48.728;9.256;2023-09-07T04:20:15;97377.97;;;13.76;100.00
12178;BME280;6152;48.728;9.256;2023-09-07T04:22:43;97376.56;;;13.72;100.00
12178;BME280;6152;48.728;9.256;2023-09-07T04:25:09;97379.16;;;13.72;100.00
12178;BME280;6152;48.728;9.256;2023-09-07T04:27:35;97380.94;;;13.71;100.00
12178;BME280;6152;48.728;9.256;2023-09-07T04:30:01;97378.19;;;13.73;100.00
12178;BME280;6152;48.728;9.256;2023-09-07T04:32:28;97380.94;;;13.71;100.00
12178;BME280;6152;48.728;9.256;2023-09-07T04:34:55;97378.63;;;13.66;100.00
12178;BME280;6152;48.728;9.256;2023-09-07T04:37:22;97378.84;;;13.63;100.00
12178;BME280;6152;48.728;9.256;2023-09-07T04:39:52;97375.59;;;13.60;100.00
12178;BME280;6152;48.728;9.256;2023-09-07T04:42:21;97384.50;;;13.57;100.00
12178;BME280;6152;48.728;9.256;2023-09-07T04:44:48;97384.94;;;13.51;100.00
12178;BME280;6152;48.728;9.256;2023-09-07T04:47:14;97387.72;;;13.48;100.00
12178;BME280;6152;48.728;9.256;2023-09-07T04:49:42;97386.28;;;13.44;100.00
12178;BME280;6152;48.728;9.256;2023-09-07T04:52:08;97390.97;;;13.39;100.00
12178;BME280;6152;48.728;9.256;2023-09-07T04:54:35;97382.59;;;13.34;100.00
12178;BME280;6152;48.728;9.256;2023-09-07T04:57:01;97377.47;;;13.33;100.00
12178;BME280;6152;48.728;9.256;2023-09-07T04:59:27;97391.59;;;13.30;100.00
12178;BME280;6152;48.728;9.256;2023-09-07T05:01:53;97381.34;;;13.27;100.00
12178;BME280;6152;48.728;9.256;2023-09-07T05:04:19;97386.56;;;13.27;100.00
12178;BME280;6152;48.728;9.256;2023-09-07T05:06:46;97385.81;;;13.25;100.00
12178;BME280;6152;48.728;9.256;2023-09-07T05:09:12;97393.66;;;13.25;100.00
12178;BME280;6152;48.728;9.256;2023-09-07T05:11:38;97397.22;;;13.24;100.00
12178;BME280;6152;48.728;9.256;2023-09-07T05:14:04;97395.34;;;13.26;100.00
12178;BME280;6152;48.728;9.256;2023-09-07T05:16:30;97398.91;;;13.25;100.00
12178;BME280;6152;48.728;9.256;2023-09-07T05:18:56;97395.97;;;13.30;100.00
12178;BME280;6152;48.728;9.256;2023-09-07T05:21:22;97406.22;;;13.33;100.00
12178;BME280;6152;48.728;9.256;2023-09-07T05:23:48;97413.94;;;13.34;100.00
12178;BME280;6152;48.728;9.256;2023-09-07T05:26:14;97412.94;;;13.37;100.00
12178;BME280;6152;48.728;9.256;2023-09-07T05:28:46;97410.19;;;13.38;100.00
12178;BME280;6152;48.728;9.256;2023-09-07T05:31:12;97413.56;;;13.40;100.00
12178;BME280;6152;48.728;9.256;2023-09-07T05:33:38;97415.03;;;13.44;100.00
12178;BME280;6152;48.728;9.256;2023-09-07T05:36:04;97414.84;;;13.47;100.00
12178;BME280;6152;48.728;9.256;2023-09-07T05:38:30;97414.63;;;13.50;100.00
12178;BME280;6152;48.728;9.256;2023-09-07T05:40:56;97420.38;;;13.55;100.00
12178;BME280;6152;48.728;9.256;2023-09-07T05:43:22;97415.75;;;13.59;100.00
12178;BME280;6152;48.728;9.256;2023-09-07T05:45:49;97417.97;;;13.65;100.00
12178;BME280;6152;48.728;9.256;2023-09-07T05:48:15;97428.88;;;13.72;100.00
12178;BME280;6152;48.728;9.256;2023-09-07T05:50:44;97412.63;;;13.79;100.00
12178;BME280;6152;48.728;9.256;2023-09-07T05:53:11;97414.63;;;13.88;100.00
12178;BME280;6152;48.728;9.256;2023-09-07T05:55:37;97413.13;;;13.97;100.00
12178;BME280;6152;48.728;9.256;2023-09-07T05:58:05;97417.53;;;14.09;100.00
12178;BME280;6152;48.728;9.256;2023-09-07T06:00:32;97416.66;;;14.21;100.00
12178;BME280;6152;48.728;9.256;2023-09-07T06:02:59;97422.91;;;14.31;100.00
12178;BME280;6152;48.728;9.256;2023-09-07T06:05:25;97415.41;;;14.39;100.00
12178;BME280;6152;48.728;9.256;2023-09-07T06:07:51;97422.59;;;14.48;100.00
12178;BME280;6152;48.728;9.256;2023-09-07T06:10:17;97421.00;;;14.58;100.00
12178;BME280;6152;48.728;9.256;2023-09-07T06:12:45;97419.50;;;14.67;100.00
12178;BME280;6152;48.728;9.256;2023-09-07T06:15:11;97421.34;;;14.78;100.00
12178;BME280;6152;48.728;9.256;2023-09-07T06:17:37;97419.34;;;14.81;100.00
12178;BME280;6152;48.728;9.256;2023-09-07T06:20:04;97422.25;;;14.89;100.00
12178;BME280;6152;48.728;9.256;2023-09-07T06:22:31;97420.84;;;14.96;100.00
12178;BME280;6152;48.728;9.256;2023-09-07T06:24:57;97419.94;;;15.08;100.00
12178;BME280;6152;48.728;9.256;2023-09-07T06:27:23;97419.63;;;15.13;100.00
12178;BME280;6152;48.728;9.256;2023-09-07T06:29:50;97426.78;;;15.22;100.00
12178;BME280;6152;48.728;9.256;2023-09-07T06:32:16;97421.31;;;15.25;100.00
12178;BME280;6152;48.728;9.256;2023-09-07T06:34:43;97417.06;;;15.35;100.00
12178;BME280;6152;48.728;9.256;2023-09-07T06:37:09;97420.78;;;15.44;100.00
12178;BME280;6152;48.728;9.256;2023-09-07T06:39:35;97423.91;;;15.49;100.00
12178;BME280;6152;48.728;9.256;2023-09-07T06:42:01;97416.41;;;15.55;100.00
12178;BME280;6152;48.728;9.256;2023-09-07T06:44:27;97419.31;;;15.63;100.00
12178;BME280;6152;48.728;9.256;2023-09-07T06:46:53;97426.47;;;15.73;100.00
12178;BME280;6152;48.728;9.256;2023-09-07T06:49:19;97423.88;;;15.84;100.00
12178;BME280;6152;48.728;9.256;2023-09-07T06:51:46;97423.16;;;15.93;100.00
12178;BME280;6152;48.728;9.256;2023-09-07T06:54:12;97425.78;;;16.04;100.00
12178;BME280;6152;48.728;9.256;2023-09-07T06:56:39;97423.66;;;16.09;100.00
12178;BME280;6152;48.728;9.256;2023-09-07T06:59:05;97433.44;;;16.18;100.00
12178;BME280;6152;48.728;9.256;2023-09-07T07:01:31;97430.22;;;16.26;100.00
12178;BME280;6152;48.728;9.256;2023-09-07T07:03:57;97431.66;;;16.30;100.00
12178;BME280;6152;48.728;9.256;2023-09-07T07:06:24;97437.84;;;16.40;100.00
12178;BME280;6152;48.728;9.256;2023-09-07T07:08:51;97440.13;;;16.44;100.00
12178;BME280;6152;48.728;9.256;2023-09-07T07:11:17;97441.81;;;16.56;100.00
12178;BME280;6152;48.728;9.256;2023-09-07T07:13:43;97442.28;;;16.61;100.00
12178;BME280;6152;48.728;9.256;2023-09-07T07:16:09;97443.69;;;16.65;100.00
12178;BME280;6152;48.728;9.256;2023-09-07T07:18:35;97432.97;;;16.69;100.00
12178;BME280;6152;48.728;9.256;2023-09-07T07:21:01;97448.94;;;16.77;100.00
12178;BME280;6152;48.728;9.256;2023-09-07T07:23:27;97443.06;;;16.84;100.00
12178;BME280;6152;48.728;9.256;2023-09-07T07:25:53;97445.94;;;16.92;100.00
12178;BME280;6152;48.728;9.256;2023-09-07T07:28:20;97445.41;;;16.98;100.00
12178;BME280;6152;48.728;9.256;2023-09-07T07:30:46;97444.91;;;17.04;100.00
12178;BME280;6152;48.728;9.256;2023-09-07T07:33:14;97448.78;;;17.21;100.00
12178;BME280;6152;48.728;9.256;2023-09-07T07:35:40;97441.81;;;17.31;100.00
12178;BME280;6152;48.728;9.256;2023-09-07T07:38:06;97440.25;;;17.40;100.00
12178;BME280;6152;48.728;9.256;2023-09-07T07:40:34;97441.97;;;17.50;100.00
12178;BME280;6152;48.728;9.256;2023-09-07T07:43:00;97442.34;;;17.57;100.00
12178;BME280;6152;48.728;9.256;2023-09-07T07:45:26;97448.94;;;17.72;100.00
12178;BME280;6152;48.728;9.256;2023-09-07T07:47:53;97448.03;;;17.83;100.00
12178;BME280;6152;48.728;9.256;2023-09-07T07:50:19;97448.69;;;17.96;100.00
12178;BME280;6152;48.728;9.256;2023-09-07T07:52:45;97446.53;;;18.10;100.00
12178;BME280;6152;48.728;9.256;2023-09-07T07:55:12;97450.19;;;18.19;100.00
12178;BME280;6152;48.728;9.256;2023-09-07T07:57:38;97448.53;;;18.28;100.00
12178;BME280;6152;48.728;9.256;2023-09-07T08:00:05;97445.81;;;18.39;100.00
12178;BME280;6152;48.728;9.256;2023-09-07T08:02:32;97446.19;;;18.55;100.00
12178;BME280;6152;48.728;9.256;2023-09-07T08:04:58;97442.38;;;18.69;100.00
12178;BME280;6152;48.728;9.256;2023-09-07T08:07:25;97451.00;;;18.90;100.00
12178;BME280;6152;48.728;9.256;2023-09-07T08:09:52;97448.25;;;19.01;100.00
12178;BME280;6152;48.728;9.256;2023-09-07T08:12:18;97442.69;;;19.13;100.00
12178;BME280;6152;48.728;9.256;2023-09-07T08:14:44;97441.88;;;19.32;100.00
12178;BME280;6152;48.728;9.256;2023-09-07T08:17:12;97429.97;;;19.47;100.00
12178;BME280;6152;48.728;9.256;2023-09-07T08:19:38;97433.97;;;19.71;100.00
12178;BME280;6152;48.728;9.256;2023-09-07T08:22:05;97425.69;;;19.93;100.00
12178;BME280;6152;48.728;9.256;2023-09-07T08:24:32;97426.47;;;20.22;100.00
12178;BME280;6152;48.728;9.256;2023-09-07T08:26:58;97426.94;;;20.45;100.00
12178;BME280;6152;48.728;9.256;2023-09-07T08:29:26;97431.78;;;20.77;100.00
12178;BME280;6152;48.728;9.256;2023-09-07T08:31:53;97428.13;;;21.05;100.00
12178;BME280;6152;48.728;9.256;2023-09-07T08:34:20;97428.38;;;21.47;100.00
12178;BME280;6152;48.728;9.256;2023-09-07T08:36:48;97433.47;;;21.84;100.00
12178;BME280;6152;48.728;9.256;2023-09-07T08:39:16;97423.53;;;22.29;100.00
12178;BME280;6152;48.728;9.256;2023-09-07T08:41:43;97435.03;;;23.46;100.00
12178;BME280;6152;48.728;9.256;2023-09-07T08:44:17;97431.09;;;26.06;79.25
12178;BME280;6152;48.728;9.256;2023-09-07T08:46:44;97426.31;;;28.38;63.20
12178;BME280;6152;48.728;9.256;2023-09-07T08:49:13;97430.56;;;30.14;53.17
12178;BME280;6152;48.728;9.256;2023-09-07T08:51:40;97426.44;;;31.78;46.62
12178;BME280;6152;48.728;9.256;2023-09-07T08:54:07;97418.09;;;32.53;41.64
12178;BME280;6152;48.728;9.256;2023-09-07T08:56:36;97416.44;;;33.25;39.73
12178;BME280;6152;48.728;9.256;2023-09-07T08:59:03;97418.75;;;33.93;38.20
12178;BME280;6152;48.728;9.256;2023-09-07T09:01:30;97416.56;;;34.71;35.95
12178;BME280;6152;48.728;9.256;2023-09-07T09:03:58;97411.25;;;35.44;35.16
12178;BME280;6152;48.728;9.256;2023-09-07T09:06:24;97407.09;;;36.15;33.69
12178;BME280;6152;48.728;9.256;2023-09-07T09:08:54;97415.22;;;35.54;33.45
12178;BME280;6152;48.728;9.256;2023-09-07T09:11:22;97420.19;;;36.57;33.50
12178;BME280;6152;48.728;9.256;2023-09-07T09:13:50;97417.75;;;37.69;31.41
12178;BME280;6152;48.728;9.256;2023-09-07T09:16:16;97416.59;;;37.91;29.30
12178;BME280;6152;48.728;9.256;2023-09-07T09:18:56;97406.78;;;38.22;28.87
12178;BME280;6152;48.728;9.256;2023-09-07T09:21:24;97398.44;;;38.81;27.89
12178;BME280;6152;48.728;9.256;2023-09-07T09:23:52;97390.53;;;38.74;28.08
12178;BME280;6152;48.728;9.256;2023-09-07T09:26:19;97401.44;;;39.57;27.94
12178;BME280;6152;48.728;9.256;2023-09-07T09:28:45;97397.66;;;39.78;26.84
12178;BME280;6152;48.728;9.256;2023-09-07T09:31:12;97392.44;;;40.47;26.84
12178;BME280;6152;48.728;9.256;2023-09-07T09:33:39;97391.22;;;40.89;25.60
12178;BME280;6152;48.728;9.256;2023-09-07T09:36:07;97386.75;;;39.98;27.28
12178;BME280;6152;48.728;9.256;2023-09-07T09:38:34;97376.06;;;39.36;26.51
12178;BME280;6152;48.728;9.256;2023-09-07T09:41:00;97378.53;;;39.43;26.99
12178;BME280;6152;48.728;9.256;2023-09-07T09:43:27;97385.63;;;40.55;26.06
12178;BME280;6152;48.728;9.256;2023-09-07T09:45:53;97382.97;;;41.04;24.99
12178;BME280;6152;48.728;9.256;2023-09-07T09:48:21;97384.28;;;40.07;26.89
12178;BME280;6152;48.728;9.256;2023-09-07T09:50:48;97382.06;;;41.18;25.78
12178;BME280;6152;48.728;9.256;2023-09-07T09:53:18;97380.09;;;42.64;24.80
12178;BME280;6152;48.728;9.256;2023-09-07T09:55:50;97373.09;;;43.38;23.77
12178;BME280;6152;48.728;9.256;2023-09-07T09:58:20;97371.91;;;43.63;22.69
12178;BME280;6152;48.728;9.256;2023-09-07T10:00:49;97371.75;;;42.51;23.37
12178;BME280;6152;48.728;9.256;2023-09-07T10:03:31;97368.56;;;41.42;24.54
12178;BME280;6152;48.728;9.256;2023-09-07T10:08:55;97369.69;;;41.75;24.30
12178;BME280;6152;48.728;9.256;2023-09-07T10:11:31;97362.59;;;42.84;23.43
12178;BME280;6152;48.728;9.256;2023-09-07T10:14:02;97362.16;;;43.19;23.31
12178;BME280;6152;48.728;9.256;2023-09-07T10:16:40;97365.00;;;43.84;22.91
12178;BME280;6152;48.728;9.256;2023-09-07T10:19:21;97361.69;;;44.47;21.83
12178;BME280;6152;48.728;9.256;2023-09-07T10:21:48;97358.25;;;44.55;21.28
12178;BME280;6152;48.728;9.256;2023-09-07T10:24:27;97364.00;;;45.21;21.55
12178;BME280;6152;48.728;9.256;2023-09-07T10:27:01;97355.03;;;45.88;20.60
12178;BME280;6152;48.728;9.256;2023-09-07T10:29:28;97349.19;;;45.45;20.61
12178;BME280;6152;48.728;9.256;2023-09-07T10:31:54;97347.66;;;45.16;21.21
12178;BME280;6152;48.728;9.256;2023-09-07T10:34:21;97350.63;;;45.78;20.29
12178;BME280;6152;48.728;9.256;2023-09-07T10:36:48;97344.53;;;46.20;19.67
12178;BME280;6152;48.728;9.256;2023-09-07T10:39:22;97341.53;;;45.19;20.28
12178;BME280;6152;48.728;9.256;2023-09-07T10:41:48;97343.22;;;45.87;20.59
12178;BME280;6152;48.728;9.256;2023-09-07T10:44:14;97340.09;;;45.80;19.80
12178;BME280;6152;48.728;9.256;2023-09-07T10:46:40;97337.47;;;45.75;20.39
12178;BME280;6152;48.728;9.256;2023-09-07T10:49:12;97347.34;;;45.98;20.26
12178;BME280;6152;48.728;9.256;2023-09-07T10:51:43;97338.81;;;45.42;20.35
12178;BME280;6152;48.728;9.256;2023-09-07T10:54:23;97333.66;;;45.85;19.81
12178;BME280;6152;48.728;9.256;2023-09-07T10:56:51;97338.19;;;43.81;21.53
12178;BME280;6152;48.728;9.256;2023-09-07T10:59:17;97321.03;;;44.62;20.92
12178;BME280;6152;48.728;9.256;2023-09-07T11:01:47;97320.97;;;45.03;21.33
12178;BME280;6152;48.728;9.256;2023-09-07T11:04:14;97320.09;;;43.80;21.37
12178;BME280;6152;48.728;9.256;2023-09-07T11:06:43;97318.34;;;44.16;21.80
12178;BME280;6152;48.728;9.256;2023-09-07T11:09:10;97319.66;;;44.87;21.06
12178;BME280;6152;48.728;9.256;2023-09-07T11:11:36;97321.00;;;45.61;20.02
12178;BME280;6152;48.728;9.256;2023-09-07T11:14:03;97318.94;;;43.49;22.13
12178;BME280;6152;48.728;9.256;2023-09-07T11:16:32;97308.00;;;44.68;21.51
12178;BME280;6152;48.728;9.256;2023-09-07T11:19:06;97316.28;;;45.62;20.82
12178;BME280;6152;48.728;9.256;2023-09-07T11:21:34;97314.69;;;44.48;21.50
12178;BME280;6152;48.728;9.256;2023-09-07T11:24:01;97313.44;;;45.31;20.81
12178;BME280;6152;48.728;9.256;2023-09-07T11:26:43;97309.06;;;45.44;20.28
12178;BME280;6152;48.728;9.256;2023-09-07T11:29:14;97317.41;;;45.75;20.25
12178;BME280;6152;48.728;9.256;2023-09-07T11:31:41;97302.25;;;45.63;20.13
12178;BME280;6152;48.728;9.256;2023-09-07T11:34:12;97308.25;;;46.18;20.23
12178;BME280;6152;48.728;9.256;2023-09-07T11:36:40;97292.03;;;46.08;19.90
12178;BME280;6152;48.728;9.256;2023-09-07T11:39:07;97297.59;;;46.26;19.63
12178;BME280;6152;48.728;9.256;2023-09-07T11:41:41;97290.78;;;46.80;19.86
12178;BME280;6152;48.728;9.256;2023-09-07T11:44:08;97298.16;;;47.10;19.24
12178;BME280;6152;48.728;9.256;2023-09-07T11:46:35;97301.47;;;46.64;19.46
12178;BME280;6152;48.728;9.256;2023-09-07T11:49:01;97297.50;;;46.87;18.72
12178;BME280;6152;48.728;9.256;2023-09-07T11:51:27;97289.94;;;47.27;18.87
12178;BME280;6152;48.728;9.256;2023-09-07T11:53:54;97300.53;;;46.68;18.93
12178;BME280;6152;48.728;9.256;2023-09-07T11:56:20;97288.78;;;45.62;19.98
12178;BME280;6152;48.728;9.256;2023-09-07T11:58:46;97290.75;;;46.14;19.42
12178;BME280;6152;48.728;9.256;2023-09-07T12:01:13;97285.75;;;46.73;19.25
12178;BME280;6152;48.728;9.256;2023-09-07T12:03:42;97286.47;;;46.96;18.59
12178;BME280;6152;48.728;9.256;2023-09-07T12:06:09;97288.09;;;46.40;19.83
12178;BME280;6152;48.728;9.256;2023-09-07T12:08:36;97281.91;;;46.35;19.46
12178;BME280;6152;48.728;9.256;2023-09-07T12:11:02;97281.91;;;46.35;19.32
12178;BME280;6152;48.728;9.256;2023-09-07T12:13:28;97283.25;;;45.53;20.01
12178;BME280;6152;48.728;9.256;2023-09-07T12:15:54;97282.34;;;45.22;20.53
12178;BME280;6152;48.728;9.256;2023-09-07T12:18:22;97274.44;;;45.43;20.42
12178;BME280;6152;48.728;9.256;2023-09-07T12:20:49;97273.97;;;44.91;21.40
12178;BME280;6152;48.728;9.256;2023-09-07T12:23:15;97278.06;;;44.80;21.28
12178;BME280;6152;48.728;9.256;2023-09-07T12:25:41;97277.19;;;44.44;21.54
12178;BME280;6152;48.728;9.256;2023-09-07T12:28:08;97270.22;;;43.08;22.90
12178;BME280;6152;48.728;9.256;2023-09-07T12:30:34;97268.03;;;42.68;23.44
12178;BME280;6152;48.728;9.256;2023-09-07T12:33:00;97272.63;;;42.01;24.62
12178;BME280;6152;48.728;9.256;2023-09-07T12:35:26;97257.88;;;40.47;25.77
12178;BME280;6152;48.728;9.256;2023-09-07T12:37:53;97262.66;;;37.80;29.57
12178;BME280;6152;48.728;9.256;2023-09-07T12:40:19;97264.72;;;36.78;30.57
12178;BME280;6152;48.728;9.256;2023-09-07T12:42:46;97258.00;;;35.43;33.18
12178;BME280;6152;48.728;9.256;2023-09-07T12:45:12;97263.31;;;34.37;34.69
12178;BME280;6152;48.728;9.256;2023-09-07T12:47:41;97269.50;;;33.74;36.70
12178;BME280;6152;48.728;9.256;2023-09-07T12:50:07;97270.47;;;32.85;36.85
12178;BME280;6152;48.728;9.256;2023-09-07T12:52:34;97256.56;;;32.40;38.73
12178;BME280;6152;48.728;9.256;2023-09-07T12:55:04;97260.94;;;31.80;40.65
12178;BME280;6152;48.728;9.256;2023-09-07T12:57:30;97257.72;;;31.47;40.53
12178;BME280;6152;48.728;9.256;2023-09-07T12:59:57;97262.00;;;31.05;42.07
12178;BME280;6152;48.728;9.256;2023-09-07T13:02:23;97259.00;;;30.88;44.08
12178;BME280;6152;48.728;9.256;2023-09-07T13:04:49;97260.31;;;30.28;46.10
12178;BME280;6152;48.728;9.256;2023-09-07T13:07:15;97265.94;;;30.14;48.33